createdAt,value
2023-04-16T00:00:09.984Z,61.23
2023-04-16T00:02:36.982Z,61.18
2023-04-16T00:08:15.912Z,61.07
2023-04-16T00:10:42.394Z,61.26
2023-04-16T00:13:08.782Z,61.43
2023-04-16T00:15:35.487Z,61.46
2023-04-16T00:18:02.006Z,61.46
2023-04-16T00:20:28.464Z,61.64
2023-04-16T00:22:55.004Z,61.53
2023-04-16T00:25:21.660Z,61.63
2023-04-16T00:27:48.147Z,61.65
2023-04-16T00:30:15.000Z,61.60
2023-04-16T00:32:41.412Z,61.56
2023-04-16T00:35:08.171Z,61.58
2023-04-16T00:37:34.668Z,61.52
2023-04-16T00:40:01.238Z,61.58
2023-04-16T00:42:27.769Z,61.54
2023-04-16T00:44:54.296Z,61.53
2023-04-16T00:47:20.754Z,61.56
2023-04-16T00:49:47.276Z,61.53
2023-04-16T00:52:13.694Z,61.58
2023-04-16T00:54:40.384Z,61.71
2023-04-16T00:57:06.792Z,61.68
2023-04-16T00:59:33.286Z,61.58
2023-04-16T01:01:59.780Z,61.57
2023-04-16T01:04:26.625Z,61.58
2023-04-16T01:06:53.515Z,61.57
2023-04-16T01:09:19.994Z,61.46
2023-04-16T01:11:46.418Z,61.50
2023-04-16T01:14:12.858Z,61.49
2023-04-16T01:16:39.262Z,61.32
2023-04-16T01:19:05.691Z,61.43
2023-04-16T01:21:32.506Z,61.42
2023-04-16T01:24:02.314Z,61.35
2023-04-16T01:26:28.825Z,61.31
2023-04-16T01:28:55.318Z,61.37
2023-04-16T01:31:21.747Z,61.31
2023-04-16T01:33:48.346Z,61.24
2023-04-16T01:36:14.704Z,61.37
2023-04-16T01:38:43.421Z,61.35
2023-04-16T01:41:09.834Z,61.35
2023-04-16T01:43:38.405Z,61.34
2023-04-16T01:46:11.788Z,61.32
2023-04-16T01:48:38.244Z,61.27
2023-04-16T01:51:05.036Z,61.34
2023-04-16T01:53:31.504Z,61.35
2023-04-16T01:55:57.919Z,61.20
2023-04-16T01:58:24.330Z,61.24
2023-04-16T02:00:50.760Z,61.19
2023-04-16T02:03:18.767Z,61.25
2023-04-16T02:05:45.356Z,61.30
2023-04-16T02:08:11.890Z,61.36
2023-04-16T02:10:38.317Z,61.42
2023-04-16T02:13:04.974Z,61.38
2023-04-16T02:15:31.438Z,61.35
2023-04-16T02:17:58.005Z,61.34
2023-04-16T02:20:25.170Z,61.30
2023-04-16T02:22:51.662Z,61.24
2023-04-16T02:25:18.162Z,61.27
2023-04-16T02:27:44.550Z,61.23
2023-04-16T02:30:11.229Z,61.07
2023-04-16T02:32:37.596Z,60.98
2023-04-16T02:35:04.163Z,60.87
2023-04-16T02:37:30.959Z,60.71
2023-04-16T02:39:57.831Z,60.59
2023-04-16T02:42:24.220Z,60.58
2023-04-16T02:44:50.711Z,60.56
2023-04-16T02:47:17.233Z,60.54
2023-04-16T02:49:43.741Z,60.57
2023-04-16T02:52:10.220Z,60.46
2023-04-16T02:54:36.645Z,60.54
2023-04-16T02:57:03.459Z,60.45
2023-04-16T02:59:29.874Z,60.42
2023-04-16T03:01:56.419Z,60.46
2023-04-16T03:04:23.345Z,60.50
2023-04-16T03:06:49.817Z,60.42
2023-04-16T03:09:16.331Z,60.46
2023-04-16T03:11:42.757Z,60.44
2023-04-16T03:14:09.462Z,60.28
2023-04-16T03:16:36.419Z,60.29
2023-04-16T03:19:02.807Z,60.30
2023-04-16T03:21:29.252Z,60.31
2023-04-16T03:23:56.136Z,60.37
2023-04-16T03:26:22.694Z,60.39
2023-04-16T03:28:49.171Z,60.29
2023-04-16T03:31:15.641Z,60.22
2023-04-16T03:33:42.820Z,60.17
2023-04-16T03:36:10.102Z,60.04
2023-04-16T03:38:36.487Z,60.07
2023-04-16T03:41:02.980Z,59.98
2023-04-16T03:43:29.442Z,59.99
2023-04-16T03:45:55.891Z,59.93
2023-04-16T03:48:22.289Z,60.07
2023-04-16T03:50:48.779Z,60.21
2023-04-16T03:53:15.495Z,60.19
2023-04-16T03:55:42.150Z,60.18
2023-04-16T03:58:08.662Z,60.29
2023-04-16T04:00:35.332Z,60.21
2023-04-16T04:03:01.954Z,60.26
2023-04-16T04:05:28.717Z,60.36
2023-04-16T04:07:55.521Z,60.44
2023-04-16T04:10:21.868Z,60.35
2023-04-16T04:12:48.316Z,60.37
2023-04-16T04:15:14.873Z,60.28
2023-04-16T04:17:41.380Z,60.10
2023-04-16T04:20:08.077Z,60.29
2023-04-16T04:22:34.488Z,60.08
2023-04-16T04:25:00.911Z,60.10
2023-04-16T04:27:27.350Z,59.94
2023-04-16T04:29:53.753Z,60.07
2023-04-16T04:32:20.266Z,59.85
2023-04-16T04:34:46.724Z,59.80
2023-04-16T04:37:13.150Z,59.76
2023-04-16T04:39:39.535Z,59.83
2023-04-16T04:42:06.050Z,59.76
2023-04-16T04:44:32.805Z,59.90
2023-04-16T04:46:59.452Z,60.13
2023-04-16T04:49:26.120Z,60.15
2023-04-16T04:51:52.672Z,60.17
2023-04-16T04:54:19.118Z,60.15
2023-04-16T04:56:46.041Z,60.20
2023-04-16T04:59:12.719Z,60.29
2023-04-16T05:01:40.224Z,60.04
2023-04-16T05:04:06.840Z,60.12
2023-04-16T05:06:33.324Z,60.00
2023-04-16T05:09:00.074Z,59.96
2023-04-16T05:11:26.519Z,59.89
2023-04-16T05:13:52.949Z,59.69
2023-04-16T05:16:20.467Z,59.78
2023-04-16T05:18:46.956Z,59.79
2023-04-16T05:21:13.367Z,59.76
2023-04-16T05:23:39.776Z,59.54
2023-04-16T05:26:06.184Z,59.41
2023-04-16T05:28:32.791Z,59.41
2023-04-16T05:30:59.807Z,59.37
2023-04-16T05:33:26.337Z,59.33
2023-04-16T05:35:52.827Z,59.25
2023-04-16T05:38:19.814Z,59.24
2023-04-16T05:40:46.320Z,59.15
2023-04-16T05:43:12.696Z,59.12
2023-04-16T05:45:41.223Z,59.14
2023-04-16T05:48:09.175Z,59.01
2023-04-16T05:50:36.096Z,59.12
2023-04-16T05:53:05.325Z,59.11
2023-04-16T05:55:31.759Z,59.06
2023-04-16T05:57:58.141Z,58.99
2023-04-16T06:00:24.609Z,58.91
2023-04-16T06:02:51.424Z,58.84
2023-04-16T06:05:19.290Z,58.67
2023-04-16T06:07:45.735Z,58.62
2023-04-16T06:10:12.171Z,58.69
2023-04-16T06:12:38.684Z,58.46
2023-04-16T06:15:05.621Z,58.65
2023-04-16T06:17:32.082Z,58.86
2023-04-16T06:19:58.816Z,58.81
2023-04-16T06:22:25.546Z,58.80
2023-04-16T06:24:52.882Z,58.81
2023-04-16T06:27:19.325Z,58.97
2023-04-16T06:29:45.751Z,58.71
2023-04-16T06:32:12.237Z,58.92
2023-04-16T06:34:39.248Z,58.85
2023-04-16T06:37:06.420Z,58.66
2023-04-16T06:39:34.212Z,58.69
2023-04-16T06:42:03.729Z,58.57
2023-04-16T06:44:30.207Z,58.50
2023-04-16T06:46:56.646Z,58.43
2023-04-16T06:49:23.182Z,58.26
2023-04-16T06:51:49.726Z,58.02
2023-04-16T06:54:16.843Z,58.13
2023-04-16T06:56:43.324Z,58.15
2023-04-16T06:59:09.946Z,57.97
2023-04-16T07:01:36.615Z,58.01
2023-04-16T07:04:03.697Z,58.09
2023-04-16T07:06:30.258Z,58.11
2023-04-16T07:08:56.706Z,58.15
2023-04-16T07:11:23.183Z,57.86
2023-04-16T07:13:51.285Z,58.03
2023-04-16T07:16:17.905Z,57.82
2023-04-16T07:18:44.738Z,57.90
2023-04-16T07:21:11.511Z,57.69
2023-04-16T07:23:37.893Z,57.86
2023-04-16T07:26:04.396Z,57.81
2023-04-16T07:28:30.875Z,57.72
2023-04-16T07:30:57.304Z,57.67
2023-04-16T07:33:24.404Z,57.62
2023-04-16T07:35:51.428Z,57.36
2023-04-16T07:38:17.819Z,57.09
2023-04-16T07:40:44.228Z,57.02
2023-04-16T07:43:10.704Z,57.21
2023-04-16T07:45:37.166Z,56.88
2023-04-16T07:48:03.768Z,56.91
2023-04-16T07:50:30.276Z,56.89
2023-04-16T07:52:56.726Z,56.59
2023-04-16T07:55:23.237Z,56.43
2023-04-16T07:57:49.671Z,56.57
2023-04-16T08:00:16.246Z,56.51
2023-04-16T08:02:43.322Z,56.32
2023-04-16T08:05:10.174Z,56.14
2023-04-16T08:07:36.664Z,55.97
2023-04-16T08:10:03.280Z,55.76
2023-04-16T08:12:29.841Z,55.73
2023-04-16T08:14:56.335Z,56.04
2023-04-16T08:17:22.922Z,55.89
2023-04-16T08:19:49.419Z,56.11
2023-04-16T08:22:16.161Z,56.38
2023-04-16T08:24:42.701Z,56.45
2023-04-16T08:27:18.326Z,56.50
2023-04-16T08:29:45.557Z,56.47
2023-04-16T08:32:11.926Z,56.55
2023-04-16T08:34:38.413Z,56.67
2023-04-16T08:37:04.931Z,56.63
2023-04-16T08:39:31.396Z,56.70
2023-04-16T08:41:57.806Z,56.67
2023-04-16T08:44:28.368Z,56.62
2023-04-16T08:46:59.100Z,56.73
2023-04-16T08:49:26.143Z,56.85
2023-04-16T08:51:55.988Z,56.56
2023-04-16T08:54:32.775Z,56.65
2023-04-16T08:56:59.812Z,56.79
2023-04-16T08:59:26.782Z,56.78
2023-04-16T09:01:56.246Z,56.65
2023-04-16T09:04:22.918Z,56.75
2023-04-16T09:06:49.667Z,56.62
2023-04-16T09:09:16.093Z,56.82
2023-04-16T09:11:42.737Z,56.86
2023-04-16T09:14:09.670Z,56.71
2023-04-16T09:16:36.395Z,56.87
2023-04-16T09:19:02.861Z,56.62
2023-04-16T09:21:29.306Z,56.90
2023-04-16T09:23:55.714Z,57.01
2023-04-16T09:26:22.693Z,56.93
2023-04-16T09:28:50.924Z,56.87
2023-04-16T09:31:17.964Z,57.19
2023-04-16T09:33:45.117Z,56.95
2023-04-16T09:36:11.554Z,57.12
2023-04-16T09:38:51.455Z,57.22
2023-04-16T09:41:18.607Z,57.17
2023-04-16T09:43:56.074Z,57.14
2023-04-16T09:46:22.626Z,57.28
2023-04-16T09:48:49.125Z,57.09
2023-04-16T09:51:15.596Z,57.09
2023-04-16T09:53:42.004Z,57.00
2023-04-16T09:56:08.877Z,57.09
2023-04-16T09:58:38.547Z,57.11
2023-04-16T10:01:09.336Z,57.07
2023-04-16T10:03:36.915Z,56.98
2023-04-16T10:06:06.486Z,57.17
2023-04-16T10:08:32.990Z,57.06
2023-04-16T10:10:59.422Z,57.07
2023-04-16T10:13:28.044Z,57.08
2023-04-16T10:15:57.892Z,57.10
2023-04-16T10:18:24.421Z,56.85
2023-04-16T10:20:50.968Z,56.83
2023-04-16T10:23:17.413Z,56.70
2023-04-16T10:25:45.077Z,56.99
2023-04-16T10:28:11.527Z,57.00
2023-04-16T10:30:38.207Z,57.06
2023-04-16T10:33:04.783Z,57.02
2023-04-16T10:35:31.388Z,57.04
2023-04-16T10:37:57.979Z,57.05
2023-04-16T10:40:25.732Z,57.11
2023-04-16T10:42:58.490Z,56.95
2023-04-16T10:45:32.803Z,57.08
2023-04-16T10:47:59.212Z,56.95
2023-04-16T10:50:25.752Z,56.77
2023-04-16T10:53:12.144Z,56.83
2023-04-16T10:55:39.064Z,56.91
2023-04-16T10:58:25.506Z,56.67
2023-04-16T11:00:52.015Z,56.63
2023-04-16T11:03:18.543Z,56.80
2023-04-16T11:05:46.990Z,56.53
2023-04-16T11:08:16.394Z,56.88
2023-04-16T11:10:43.909Z,56.61
2023-04-16T11:13:10.830Z,56.90
2023-04-16T11:15:37.336Z,56.73
2023-04-16T11:18:04.215Z,56.69
2023-04-16T11:20:30.832Z,56.46
2023-04-16T11:22:57.962Z,56.64
2023-04-16T11:25:25.228Z,56.56
2023-04-16T11:27:52.106Z,56.50
2023-04-16T11:30:18.947Z,56.49
2023-04-16T11:32:45.681Z,56.35
2023-04-16T11:35:16.293Z,56.45
2023-04-16T11:37:42.713Z,56.39
2023-04-16T11:40:12.612Z,56.34
2023-04-16T11:42:42.846Z,56.38
2023-04-16T11:45:09.911Z,56.35
2023-04-16T11:47:46.624Z,56.49
2023-04-16T11:50:20.422Z,56.34
2023-04-16T11:52:48.278Z,56.24
2023-04-16T11:55:15.590Z,56.49
2023-04-16T11:57:42.271Z,56.26
2023-04-16T12:00:13.972Z,56.32
2023-04-16T12:02:41.410Z,56.20
2023-04-16T12:05:26.681Z,56.24
2023-04-16T12:07:53.100Z,56.29
2023-04-16T12:10:19.620Z,56.31
2023-04-16T12:12:46.165Z,56.33
2023-04-16T12:15:12.668Z,56.46
2023-04-16T12:17:39.235Z,56.31
2023-04-16T12:20:09.640Z,56.34
2023-04-16T12:22:37.442Z,56.54
2023-04-16T12:25:06.026Z,56.35
2023-04-16T12:28:01.714Z,56.38
2023-04-16T12:30:28.188Z,56.25
2023-04-16T12:33:13.847Z,56.28
2023-04-16T12:35:41.921Z,55.95
2023-04-16T12:38:08.353Z,56.01
2023-04-16T12:40:36.886Z,55.97
2023-04-16T12:43:03.656Z,55.90
2023-04-16T12:45:30.042Z,55.92
2023-04-16T12:47:56.674Z,55.77
2023-04-16T12:50:24.369Z,55.71
2023-04-16T12:52:50.951Z,56.06
2023-04-16T12:55:17.557Z,55.76
2023-04-16T12:57:44.426Z,55.78
2023-04-16T13:00:11.236Z,55.94
2023-04-16T13:02:37.958Z,55.71
2023-04-16T13:05:04.826Z,55.66
2023-04-16T13:07:32.306Z,55.63
2023-04-16T13:09:58.754Z,55.45
2023-04-16T13:12:25.361Z,55.47
2023-04-16T13:14:51.793Z,55.26
2023-04-16T13:17:18.248Z,55.16
2023-04-16T13:19:45.256Z,55.17
2023-04-16T13:22:11.665Z,55.40
2023-04-16T13:24:38.985Z,55.13
2023-04-16T13:27:05.854Z,55.32
2023-04-16T13:29:32.314Z,55.48
2023-04-16T13:31:58.677Z,55.45
2023-04-16T13:34:25.151Z,55.29
2023-04-16T13:36:51.564Z,55.25
2023-04-16T13:39:18.192Z,55.29
2023-04-16T13:41:44.584Z,55.23
2023-04-16T13:44:11.007Z,55.25
2023-04-16T13:46:37.543Z,55.40
2023-04-16T13:49:03.962Z,55.17
2023-04-16T13:51:30.460Z,54.91
2023-04-16T13:53:56.859Z,55.04
2023-04-16T13:56:23.333Z,55.01
2023-04-16T13:58:50.814Z,54.96
2023-04-16T14:01:17.386Z,55.04
2023-04-16T14:03:44.030Z,54.67
2023-04-16T14:06:10.510Z,54.79
2023-04-16T14:08:38.282Z,54.89
2023-04-16T14:11:06.480Z,54.87
2023-04-16T14:13:32.877Z,54.91
2023-04-16T14:15:59.347Z,54.77
2023-04-16T14:18:25.880Z,54.69
2023-04-16T14:20:52.309Z,54.78
2023-04-16T14:23:18.822Z,54.51
2023-04-16T14:25:45.300Z,54.33
2023-04-16T14:28:13.068Z,54.70
2023-04-16T14:30:41.487Z,54.57
2023-04-16T14:33:07.939Z,54.63
2023-04-16T14:35:35.029Z,54.56
2023-04-16T14:38:01.566Z,54.21
2023-04-16T14:40:27.973Z,54.28
2023-04-16T14:42:54.449Z,54.19
2023-04-16T14:45:21.250Z,54.17
2023-04-16T14:47:48.227Z,54.15
2023-04-16T14:50:15.593Z,54.08
2023-04-16T14:52:42.184Z,54.07
2023-04-16T14:55:08.600Z,54.21
2023-04-16T14:57:35.382Z,54.06
2023-04-16T15:00:02.115Z,54.08
2023-04-16T15:02:28.652Z,53.91
2023-04-16T15:04:55.426Z,54.04
2023-04-16T15:07:22.131Z,53.89
2023-04-16T15:09:49.152Z,53.94
2023-04-16T15:12:17.923Z,53.75
2023-04-16T15:14:45.693Z,53.85
2023-04-16T15:17:12.202Z,54.06
2023-04-16T15:19:38.681Z,53.85
2023-04-16T15:22:05.094Z,53.86
2023-04-16T15:24:31.551Z,53.88
2023-04-16T15:26:58.140Z,54.16
2023-04-16T15:29:24.617Z,53.96
2023-04-16T15:31:51.159Z,54.13
2023-04-16T15:34:17.625Z,54.24
2023-04-16T15:36:44.035Z,54.15
2023-04-16T15:39:10.793Z,54.07
2023-04-16T15:41:50.246Z,53.81
2023-04-16T15:44:26.005Z,53.94
2023-04-16T15:46:53.610Z,53.85
2023-04-16T15:49:20.041Z,54.15
2023-04-16T15:51:46.567Z,53.79
2023-04-16T15:54:13.016Z,53.83
2023-04-16T15:56:39.689Z,53.98
2023-04-16T15:59:06.577Z,53.93
2023-04-16T16:01:33.084Z,53.54
2023-04-16T16:03:59.707Z,53.56
2023-04-16T16:06:27.171Z,53.48
2023-04-16T16:08:54.509Z,53.64
2023-04-16T16:11:21.256Z,53.65
2023-04-16T16:13:47.769Z,53.50
2023-04-16T16:16:14.917Z,53.51
2023-04-16T16:18:42.633Z,53.51
2023-04-16T16:21:09.019Z,53.45
2023-04-16T16:23:35.589Z,53.52
2023-04-16T16:26:03.205Z,53.37
2023-04-16T16:28:29.609Z,53.45
2023-04-16T16:30:58.710Z,53.22
2023-04-16T16:33:25.384Z,53.36
2023-04-16T16:35:51.834Z,53.27
2023-04-16T16:38:18.325Z,53.29
2023-04-16T16:40:45.130Z,53.23
2023-04-16T16:43:11.683Z,53.24
2023-04-16T16:45:38.610Z,53.39
2023-04-16T16:48:05.404Z,53.32
2023-04-16T16:50:32.640Z,53.36
2023-04-16T16:52:59.716Z,53.40
2023-04-16T16:55:26.492Z,53.19
2023-04-16T16:57:53.389Z,53.07
2023-04-16T17:00:21.603Z,53.15
2023-04-16T17:02:51.148Z,53.59
2023-04-16T17:05:17.904Z,53.35
2023-04-16T17:07:45.950Z,53.46
2023-04-16T17:10:15.874Z,53.46
2023-04-16T17:12:42.356Z,53.53
2023-04-16T17:15:09.218Z,53.91
2023-04-16T17:17:38.349Z,53.92
2023-04-16T17:20:09.266Z,53.70
2023-04-16T17:22:36.060Z,53.77
2023-04-16T17:25:02.599Z,53.80
2023-04-16T17:27:30.072Z,53.97
2023-04-16T17:30:00.183Z,54.01
2023-04-16T17:32:27.036Z,53.93
2023-04-16T17:34:56.580Z,53.80
2023-04-16T17:37:23.367Z,53.86
2023-04-16T17:39:49.867Z,53.55
2023-04-16T17:42:16.350Z,53.69
2023-04-16T17:44:42.875Z,53.97
2023-04-16T17:47:09.277Z,53.81
2023-04-16T17:49:36.108Z,53.68
2023-04-16T17:52:02.534Z,53.82
2023-04-16T17:54:28.963Z,53.78
2023-04-16T17:56:55.449Z,53.44
2023-04-16T17:59:21.931Z,53.43
2023-04-16T18:01:49.600Z,53.42
2023-04-16T18:04:16.472Z,53.58
2023-04-16T18:06:43.321Z,53.57
2023-04-16T18:09:09.771Z,53.71
2023-04-16T18:11:36.258Z,53.65
2023-04-16T18:14:02.753Z,53.32
2023-04-16T18:16:29.241Z,53.44
2023-04-16T18:18:55.833Z,53.71
2023-04-16T18:21:22.457Z,53.43
2023-04-16T18:23:48.864Z,53.42
2023-04-16T18:26:22.422Z,53.51
2023-04-16T18:28:49.428Z,53.66
2023-04-16T18:31:16.021Z,53.53
2023-04-16T18:33:54.172Z,53.57
2023-04-16T18:36:22.557Z,53.36
2023-04-16T18:39:01.042Z,53.20
2023-04-16T18:41:29.906Z,53.03
2023-04-16T18:43:57.721Z,53.08
2023-04-16T18:46:24.390Z,53.02
2023-04-16T18:48:50.994Z,52.66
2023-04-16T18:51:19.782Z,52.79
2023-04-16T18:53:48.543Z,52.82
2023-04-16T18:56:15.624Z,52.92
2023-04-16T18:58:44.788Z,53.24
2023-04-16T19:01:13.669Z,53.43
2023-04-16T19:03:40.141Z,53.35
2023-04-16T19:06:06.602Z,53.27
2023-04-16T19:08:33.097Z,52.98
2023-04-16T19:10:59.857Z,52.85
2023-04-16T19:13:26.437Z,52.99
2023-04-16T19:15:58.392Z,52.96
2023-04-16T19:18:24.970Z,53.04
2023-04-16T19:20:51.685Z,52.91
2023-04-16T19:23:18.066Z,52.78
2023-04-16T19:25:44.488Z,52.55
2023-04-16T19:28:18.434Z,52.76
2023-04-16T19:30:46.717Z,52.80
2023-04-16T19:33:13.410Z,52.37
2023-04-16T19:35:42.113Z,52.24
2023-04-16T19:38:11.183Z,52.48
2023-04-16T19:40:37.872Z,52.51
2023-04-16T19:43:04.321Z,52.54
2023-04-16T19:45:30.777Z,52.38
2023-04-16T19:47:57.267Z,52.05
2023-04-16T19:50:23.880Z,51.94
2023-04-16T19:52:54.036Z,50.80
2023-04-16T19:55:20.537Z,50.35
2023-04-16T19:57:48.772Z,50.02
2023-04-16T20:00:15.433Z,50.12
2023-04-16T20:02:42.102Z,49.93
2023-04-16T20:05:08.875Z,50.87
2023-04-16T20:07:35.406Z,51.67
2023-04-16T20:10:02.966Z,52.31
2023-04-16T20:12:29.479Z,52.35
2023-04-16T20:14:57.104Z,52.92
2023-04-16T20:17:26.170Z,53.13
2023-04-16T20:19:52.692Z,53.62
2023-04-16T20:22:20.208Z,53.48
2023-04-16T20:24:48.095Z,54.01
2023-04-16T20:27:15.501Z,54.23
2023-04-16T20:29:42.170Z,53.97
2023-04-16T20:32:08.699Z,54.27
2023-04-16T20:34:36.525Z,54.03
2023-04-16T20:37:03.012Z,54.09
2023-04-16T20:39:33.894Z,54.07
2023-04-16T20:42:04.774Z,53.71
2023-04-16T20:44:40.432Z,53.78
2023-04-16T20:47:07.691Z,53.66
2023-04-16T20:49:38.252Z,53.71
2023-04-16T20:52:05.087Z,53.74
2023-04-16T20:54:31.503Z,53.54
2023-04-16T20:56:59.028Z,53.49
2023-04-16T20:59:25.782Z,53.35
2023-04-16T21:01:52.437Z,53.20
2023-04-16T21:04:19.441Z,53.24
2023-04-16T21:06:46.171Z,53.06
2023-04-16T21:09:13.263Z,53.29
2023-04-16T21:11:41.418Z,53.29
2023-04-16T21:14:07.873Z,52.99
2023-04-16T21:16:34.370Z,52.91
2023-04-16T21:19:00.971Z,53.37
2023-04-16T21:21:27.558Z,53.85
2023-04-16T21:23:53.954Z,54.32
2023-04-16T21:26:20.748Z,54.45
2023-04-16T21:28:47.230Z,54.68
2023-04-16T21:31:13.692Z,54.62
2023-04-16T21:33:40.219Z,54.78
2023-04-16T21:36:06.775Z,54.71
2023-04-16T21:38:33.160Z,54.73
2023-04-16T21:41:00.994Z,54.97
2023-04-16T21:43:29.770Z,54.70
2023-04-16T21:45:57.434Z,54.94
2023-04-16T21:48:23.967Z,55.00
2023-04-16T21:50:58.280Z,55.54
2023-04-16T21:53:25.418Z,56.28
2023-04-16T21:55:52.266Z,56.98
2023-04-16T21:58:18.715Z,57.33
2023-04-16T22:00:45.517Z,57.31
2023-04-16T22:03:12.498Z,57.75
2023-04-16T22:05:41.231Z,57.99
2023-04-16T22:08:23.643Z,58.19
2023-04-16T22:10:51.243Z,58.69
2023-04-16T22:13:17.944Z,58.81
2023-04-16T22:15:44.410Z,58.55
2023-04-16T22:18:11.532Z,58.53
2023-04-16T22:20:39.532Z,58.50
2023-04-16T22:23:06.383Z,58.69
2023-04-16T22:25:32.951Z,58.58
2023-04-16T22:27:59.906Z,58.86
2023-04-16T22:30:26.338Z,58.79
2023-04-16T22:32:52.879Z,58.53
2023-04-16T22:35:19.333Z,58.25
2023-04-16T22:37:46.002Z,58.29
2023-04-16T22:40:12.410Z,57.79
2023-04-16T22:42:38.856Z,57.54
2023-04-16T22:45:07.466Z,57.57
2023-04-16T22:47:34.145Z,57.29
2023-04-16T22:50:03.492Z,57.17
2023-04-16T22:52:29.990Z,57.02
2023-04-16T22:54:56.479Z,57.22
2023-04-16T22:57:27.847Z,57.21
2023-04-16T22:59:54.336Z,56.95
2023-04-16T23:02:21.720Z,56.79
2023-04-16T23:04:48.191Z,56.48
2023-04-16T23:07:14.938Z,56.24
2023-04-16T23:09:41.379Z,56.05
2023-04-16T23:12:08.017Z,55.81
2023-04-16T23:14:35.173Z,55.82
2023-04-16T23:17:01.934Z,55.73
2023-04-16T23:19:28.787Z,55.64
2023-04-16T23:21:55.207Z,55.71
2023-04-16T23:24:23.814Z,55.66
2023-04-16T23:26:52.387Z,55.60
2023-04-16T23:29:18.940Z,55.89
2023-04-16T23:31:45.546Z,55.55
2023-04-16T23:34:12.061Z,55.56
2023-04-16T23:36:39.296Z,55.40
2023-04-16T23:39:05.748Z,55.24
2023-04-16T23:41:32.194Z,55.22
2023-04-16T23:43:58.730Z,55.11
2023-04-16T23:46:25.329Z,55.25
2023-04-16T23:48:52.687Z,54.82
2023-04-16T23:51:19.180Z,54.80
2023-04-16T23:53:45.702Z,54.75
2023-04-16T23:56:12.199Z,54.78
2023-04-16T23:58:38.702Z,55.00
